sensor_id;sensor_type;location;lat;lon;timestamp;pressure;altitude;pressure_sealevel;temperature;humidity
75629;BME280;64213;46.452;16.994;2023-04-03T00:00:47;100113.78;;;4.91;66.86
75629;BME280;64213;46.452;16.994;2023-04-03T00:03:51;100106.81;;;4.92;67.04
75629;BME280;64213;46.452;16.994;2023-04-03T00:06:54;100112.94;;;4.90;66.80
75629;BME280;64213;46.452;16.994;2023-04-03T00:09:56;100109.44;;;4.92;66.93
75629;BME280;64213;46.452;16.994;2023-04-03T00:12:58;100103.44;;;4.88;67.00
75629;BME280;64213;46.452;16.994;2023-04-03T00:16:00;100101.84;;;4.84;67.10
75629;BME280;64213;46.452;16.994;2023-04-03T00:19:03;100105.31;;;4.84;67.29
75629;BME280;64213;46.452;16.994;2023-04-03T00:22:05;100102.09;;;4.78;67.74
75629;BME280;64213;46.452;16.994;2023-04-03T00:25:08;100100.44;;;4.75;67.75
75629;BME280;64213;46.452;16.994;2023-04-03T00:28:10;100104.91;;;4.73;68.21
75629;BME280;64213;46.452;16.994;2023-04-03T00:31:16;100108.41;;;4.72;68.24
75629;BME280;64213;46.452;16.994;2023-04-03T00:34:19;100107.63;;;4.70;68.54
75629;BME280;64213;46.452;16.994;2023-04-03T00:37:21;100106.72;;;4.71;68.56
75629;BME280;64213;46.452;16.994;2023-04-03T00:40:25;100102.41;;;4.70;68.86
75629;BME280;64213;46.452;16.994;2023-04-03T00:43:28;100101.47;;;4.71;69.01
75629;BME280;64213;46.452;16.994;2023-04-03T00:46:30;100100.81;;;4.66;69.26
75629;BME280;64213;46.452;16.994;2023-04-03T00:49:33;100103.47;;;4.64;69.33
75629;BME280;64213;46.452;16.994;2023-04-03T00:52:37;100106.09;;;4.64;69.63
75629;BME280;64213;46.452;16.994;2023-04-03T00:55:39;100096.44;;;4.66;69.45
75629;BME280;64213;46.452;16.994;2023-04-03T00:58:48;100101.44;;;4.73;69.31
75629;BME280;64213;46.452;16.994;2023-04-03T01:01:55;100104.78;;;4.76;69.23
75629;BME280;64213;46.452;16.994;2023-04-03T01:04:58;100111.59;;;4.80;69.34
75629;BME280;64213;46.452;16.994;2023-04-03T01:08:00;100109.66;;;4.85;69.10
75629;BME280;64213;46.452;16.994;2023-04-03T01:11:04;100110.31;;;4.90;68.81
75629;BME280;64213;46.452;16.994;2023-04-03T01:14:06;100103.25;;;4.93;68.78
75629;BME280;64213;46.452;16.994;2023-04-03T01:17:30;100108.37;;;4.96;68.76
75629;BME280;64213;46.452;16.994;2023-04-03T01:26:58;100116.91;;;5.01;68.49
75629;BME280;64213;46.452;16.994;2023-04-03T01:30:00;100112.47;;;5.03;68.54
75629;BME280;64213;46.452;16.994;2023-04-03T01:33:02;100110.69;;;5.03;68.42
75629;BME280;64213;46.452;16.994;2023-04-03T01:36:05;100107.94;;;5.06;68.31
75629;BME280;64213;46.452;16.994;2023-04-03T01:39:08;100100.06;;;5.06;68.50
75629;BME280;64213;46.452;16.994;2023-04-03T01:42:10;100108.00;;;5.05;68.28
75629;BME280;64213;46.452;16.994;2023-04-03T01:45:13;100108.78;;;5.07;68.44
75629;BME280;64213;46.452;16.994;2023-04-03T01:48:16;100114.91;;;5.07;68.46
75629;BME280;64213;46.452;16.994;2023-04-03T01:51:18;100112.28;;;5.07;68.48
75629;BME280;64213;46.452;16.994;2023-04-03T01:54:20;100117.53;;;5.07;68.55
75629;BME280;64213;46.452;16.994;2023-04-03T01:57:23;100115.81;;;5.06;68.47
75629;BME280;64213;46.452;16.994;2023-04-03T02:00:25;100114.97;;;5.06;68.72
75629;BME280;64213;46.452;16.994;2023-04-03T02:03:28;100120.31;;;5.03;68.73
75629;BME280;64213;46.452;16.994;2023-04-03T02:06:30;100117.56;;;5.06;68.59
75629;BME280;64213;46.452;16.994;2023-04-03T02:09:32;100112.34;;;5.06;68.68
75629;BME280;64213;46.452;16.994;2023-04-03T02:12:35;100114.16;;;5.04;68.81
75629;BME280;64213;46.452;16.994;2023-04-03T02:15:40;100115.94;;;5.03;68.83
75629;BME280;64213;46.452;16.994;2023-04-03T02:18:42;100114.22;;;5.02;68.91
75629;BME280;64213;46.452;16.994;2023-04-03T02:21:44;100113.25;;;5.05;69.39
75629;BME280;64213;46.452;16.994;2023-04-03T02:24:47;100118.50;;;5.05;69.13
75629;BME280;64213;46.452;16.994;2023-04-03T02:27:49;100116.91;;;5.01;69.04
75629;BME280;64213;46.452;16.994;2023-04-03T02:30:51;100113.38;;;5.02;69.16
75629;BME280;64213;46.452;16.994;2023-04-03T02:33:55;100106.38;;;5.02;69.14
75629;BME280;64213;46.452;16.994;2023-04-03T02:36:57;100108.13;;;5.02;69.17
75629;BME280;64213;46.452;16.994;2023-04-03T02:39:59;100109.03;;;5.01;69.13
75629;BME280;64213;46.452;16.994;2023-04-03T02:43:01;100105.50;;;5.02;69.20
75629;BME280;64213;46.452;16.994;2023-04-03T02:46:04;100104.72;;;5.00;68.99
75629;BME280;64213;46.452;16.994;2023-04-03T02:49:06;100110.88;;;4.99;68.97
75629;BME280;64213;46.452;16.994;2023-04-03T02:52:09;100103.91;;;4.98;69.03
75629;BME280;64213;46.452;16.994;2023-04-03T02:55:14;100104.78;;;4.98;68.96
75629;BME280;64213;46.452;16.994;2023-04-03T02:58:17;100103.97;;;4.96;69.00
75629;BME280;64213;46.452;16.994;2023-04-03T03:01:20;100114.47;;;4.96;69.12
75629;BME280;64213;46.452;16.994;2023-04-03T03:04:22;100109.31;;;4.95;68.84
75629;BME280;64213;46.452;16.994;2023-04-03T03:07:24;100100.56;;;4.94;68.97
75629;BME280;64213;46.452;16.994;2023-04-03T03:10:27;100102.41;;;4.92;69.19
75629;BME280;64213;46.452;16.994;2023-04-03T03:13:30;100101.69;;;4.88;69.43
75629;BME280;64213;46.452;16.994;2023-04-03T03:16:33;100092.91;;;4.89;69.52
75629;BME280;64213;46.452;16.994;2023-04-03T03:19:35;100099.94;;;4.87;69.50
75629;BME280;64213;46.452;16.994;2023-04-03T03:22:37;100097.41;;;4.86;69.40
75629;BME280;64213;46.452;16.994;2023-04-03T03:25:40;100101.00;;;4.83;69.36
75629;BME280;64213;46.452;16.994;2023-04-03T03:28:48;100103.75;;;4.80;69.51
75629;BME280;64213;46.452;16.994;2023-04-03T03:31:51;100096.91;;;4.76;69.58
75629;BME280;64213;46.452;16.994;2023-04-03T03:34:53;100091.81;;;4.73;69.73
75629;BME280;64213;46.452;16.994;2023-04-03T03:37:56;100091.06;;;4.70;69.90
75629;BME280;64213;46.452;16.994;2023-04-03T03:40:58;100097.28;;;4.67;70.16
75629;BME280;64213;46.452;16.994;2023-04-03T03:44:00;100086.09;;;4.62;70.26
75629;BME280;64213;46.452;16.994;2023-04-03T03:47:02;100095.97;;;4.55;70.59
75629;BME280;64213;46.452;16.994;2023-04-03T03:50:06;100093.53;;;4.51;70.98
75629;BME280;64213;46.452;16.994;2023-04-03T03:53:12;100092.81;;;4.47;71.04
75629;BME280;64213;46.452;16.994;2023-04-03T03:56:14;100101.75;;;4.41;71.36
75629;BME280;64213;46.452;16.994;2023-04-03T03:59:16;100103.56;;;4.39;71.46
75629;BME280;64213;46.452;16.994;2023-04-03T04:02:19;100104.63;;;4.34;71.76
75629;BME280;64213;46.452;16.994;2023-04-03T04:05:21;100101.34;;;4.29;71.98
75629;BME280;64213;46.452;16.994;2023-04-03T04:08:24;100094.56;;;4.23;72.28
75629;BME280;64213;46.452;16.994;2023-04-03T04:11:26;100104.38;;;4.18;72.67
75629;BME280;64213;46.452;16.994;2023-04-03T04:14:29;100100.25;;;4.11;72.92
75629;BME280;64213;46.452;16.994;2023-04-03T04:17:32;100102.09;;;4.09;73.02
75629;BME280;64213;46.452;16.994;2023-04-03T04:20:34;100096.06;;;4.07;73.20
75629;BME280;64213;46.452;16.994;2023-04-03T04:23:36;100102.22;;;4.06;73.37
75629;BME280;64213;46.452;16.994;2023-04-03T04:26:38;100099.59;;;4.06;73.45
75629;BME280;64213;46.452;16.994;2023-04-03T04:29:40;100097.00;;;4.04;73.35
75629;BME280;64213;46.452;16.994;2023-04-03T04:32:43;100105.78;;;4.03;73.25
75629;BME280;64213;46.452;16.994;2023-04-03T04:35:47;100105.81;;;4.02;73.34
75629;BME280;64213;46.452;16.994;2023-04-03T04:38:50;100108.44;;;4.02;73.28
75629;BME280;64213;46.452;16.994;2023-04-03T04:41:54;100115.28;;;4.06;72.73
75629;BME280;64213;46.452;16.994;2023-04-03T04:44:57;100118.75;;;4.06;72.43
75629;BME280;64213;46.452;16.994;2023-04-03T04:47:59;100110.09;;;4.04;72.53
75629;BME280;64213;46.452;16.994;2023-04-03T04:51:01;100111.03;;;4.03;72.37
75629;BME280;64213;46.452;16.994;2023-04-03T04:54:04;100118.81;;;4.05;72.03
75629;BME280;64213;46.452;16.994;2023-04-03T04:57:06;100122.34;;;4.04;71.55
75629;BME280;64213;46.452;16.994;2023-04-03T05:00:09;100131.78;;;4.08;70.77
75629;BME280;64213;46.452;16.994;2023-04-03T05:03:13;100134.34;;;4.09;70.54
75629;BME280;64213;46.452;16.994;2023-04-03T05:06:15;100138.66;;;4.10;70.23
75629;BME280;64213;46.452;16.994;2023-04-03T05:09:17;100136.88;;;4.12;69.81
75629;BME280;64213;46.452;16.994;2023-04-03T05:12:21;100134.91;;;4.17;69.88
75629;BME280;64213;46.452;16.994;2023-04-03T05:15:23;100133.72;;;4.26;69.74
75629;BME280;64213;46.452;16.994;2023-04-03T05:18:26;100146.59;;;4.32;69.53
75629;BME280;64213;46.452;16.994;2023-04-03T05:21:28;100167.56;;;4.32;69.19
75629;BME280;64213;46.452;16.994;2023-04-03T05:24:34;100162.22;;;4.35;69.22
75629;BME280;64213;46.452;16.994;2023-04-03T05:27:36;100169.94;;;4.38;69.38
75629;BME280;64213;46.452;16.994;2023-04-03T05:30:39;100172.06;;;4.52;69.02
75629;BME280;64213;46.452;16.994;2023-04-03T05:33:41;100175.28;;;4.59;68.69
75629;BME280;64213;46.452;16.994;2023-04-03T05:36:43;100170.75;;;4.64;68.41
75629;BME280;64213;46.452;16.994;2023-04-03T05:39:45;100176.91;;;4.63;68.56
75629;BME280;64213;46.452;16.994;2023-04-03T05:42:47;100184.78;;;4.63;68.47
75629;BME280;64213;46.452;16.994;2023-04-03T05:45:51;100189.19;;;4.61;68.47
75629;BME280;64213;46.452;16.994;2023-04-03T05:48:53;100195.59;;;4.54;68.80
75629;BME280;64213;46.452;16.994;2023-04-03T05:51:56;100189.91;;;4.66;68.70
75629;BME280;64213;46.452;16.994;2023-04-03T05:54:58;100184.41;;;4.72;68.37
75629;BME280;64213;46.452;16.994;2023-04-03T05:58:00;100200.94;;;4.74;68.22
75629;BME280;64213;46.452;16.994;2023-04-03T06:01:02;100192.22;;;4.74;68.22
75629;BME280;64213;46.452;16.994;2023-04-03T06:04:05;100190.75;;;5.12;67.06
75629;BME280;64213;46.452;16.994;2023-04-03T06:07:11;100208.38;;;5.30;66.31
75629;BME280;64213;46.452;16.994;2023-04-03T06:10:14;100210.06;;;5.09;66.78
75629;BME280;64213;46.452;16.994;2023-04-03T06:13:16;100213.50;;;5.11;66.89
75629;BME280;64213;46.452;16.994;2023-04-03T06:16:18;100214.03;;;5.42;65.78
75629;BME280;64213;46.452;16.994;2023-04-03T06:19:21;100210.69;;;5.16;65.97
75629;BME280;64213;46.452;16.994;2023-04-03T06:22:24;100214.09;;;5.18;65.70
75629;BME280;64213;46.452;16.994;2023-04-03T06:25:27;100212.78;;;5.30;65.41
75629;BME280;64213;46.452;16.994;2023-04-03T06:28:29;100215.94;;;5.16;65.37
75629;BME280;64213;46.452;16.994;2023-04-03T06:31:31;100221.72;;;5.02;65.61
75629;BME280;64213;46.452;16.994;2023-04-03T06:34:33;100214.69;;;5.03;65.36
75629;BME280;64213;46.452;16.994;2023-04-03T06:37:36;100213.37;;;5.15;65.05
75629;BME280;64213;46.452;16.994;2023-04-03T06:40:38;100215.03;;;5.17;64.96
75629;BME280;64213;46.452;16.994;2023-04-03T06:43:41;100224.91;;;5.32;64.52
75629;BME280;64213;46.452;16.994;2023-04-03T06:46:43;100213.50;;;5.33;64.20
75629;BME280;64213;46.452;16.994;2023-04-03T06:49:46;100218.88;;;5.52;63.89
75629;BME280;64213;46.452;16.994;2023-04-03T06:52:48;100227.16;;;5.42;63.95
75629;BME280;64213;46.452;16.994;2023-04-03T06:55:50;100213.03;;;5.46;63.67
75629;BME280;64213;46.452;16.994;2023-04-03T06:58:53;100230.59;;;5.44;63.84
75629;BME280;64213;46.452;16.994;2023-04-03T07:02:01;100232.78;;;5.54;64.04
75629;BME280;64213;46.452;16.994;2023-04-03T07:05:04;100230.81;;;5.59;63.79
75629;BME280;64213;46.452;16.994;2023-04-03T07:08:07;100231.19;;;5.50;64.39
75629;BME280;64213;46.452;16.994;2023-04-03T07:11:10;100232.03;;;5.51;64.24
75629;BME280;64213;46.452;16.994;2023-04-03T07:14:12;100245.59;;;5.62;64.35
75629;BME280;64213;46.452;16.994;2023-04-03T07:17:15;100238.47;;;5.44;65.57
75629;BME280;64213;46.452;16.994;2023-04-03T07:20:17;100246.63;;;5.58;65.64
75629;BME280;64213;46.452;16.994;2023-04-03T07:23:19;100233.19;;;5.66;65.33
75629;BME280;64213;46.452;16.994;2023-04-03T07:26:22;100242.19;;;5.80;65.46
75629;BME280;64213;46.452;16.994;2023-04-03T07:29:24;100241.94;;;5.66;64.78
75629;BME280;64213;46.452;16.994;2023-04-03T07:32:26;100244.78;;;5.60;63.98
75629;BME280;64213;46.452;16.994;2023-04-03T07:35:28;100236.91;;;5.60;63.48
75629;BME280;64213;46.452;16.994;2023-04-03T07:38:31;100233.25;;;5.42;63.60
75629;BME280;64213;46.452;16.994;2023-04-03T07:41:33;100240.28;;;5.42;62.98
75629;BME280;64213;46.452;16.994;2023-04-03T07:44:36;100255.13;;;5.43;62.78
75629;BME280;64213;46.452;16.994;2023-04-03T07:47:38;100260.47;;;5.40;62.68
75629;BME280;64213;46.452;16.994;2023-04-03T07:50:40;100249.00;;;5.42;62.58
75629;BME280;64213;46.452;16.994;2023-04-03T07:53:43;100248.16;;;5.42;62.40
75629;BME280;64213;46.452;16.994;2023-04-03T07:56:45;100254.50;;;5.36;62.86
75629;BME280;64213;46.452;16.994;2023-04-03T07:59:47;100246.50;;;5.39;62.67
75629;BME280;64213;46.452;16.994;2023-04-03T08:02:49;100256.81;;;5.44;62.50
75629;BME280;64213;46.452;16.994;2023-04-03T08:05:54;100246.09;;;5.50;62.05
75629;BME280;64213;46.452;16.994;2023-04-03T08:08:56;100253.28;;;5.45;61.46
75629;BME280;64213;46.452;16.994;2023-04-03T08:11:59;100243.75;;;5.42;61.25
75629;BME280;64213;46.452;16.994;2023-04-03T08:15:01;100246.81;;;5.53;60.84
75629;BME280;64213;46.452;16.994;2023-04-03T08:18:04;100248.34;;;5.59;59.87
75629;BME280;64213;46.452;16.994;2023-04-03T08:21:08;100256.56;;;5.72;59.55
75629;BME280;64213;46.452;16.994;2023-04-03T08:24:10;100249.69;;;5.90;59.11
75629;BME280;64213;46.452;16.994;2023-04-03T08:27:12;100251.94;;;5.78;58.73
75629;BME280;64213;46.452;16.994;2023-04-03T08:30:15;100243.84;;;5.83;58.72
75629;BME280;64213;46.452;16.994;2023-04-03T08:33:17;100257.22;;;5.99;57.94
75629;BME280;64213;46.452;16.994;2023-04-03T08:36:21;100240.97;;;6.11;57.92
75629;BME280;64213;46.452;16.994;2023-04-03T08:39:24;100249.44;;;6.18;58.11
75629;BME280;64213;46.452;16.994;2023-04-03T08:45:53;100247.94;;;6.33;58.14
75629;BME280;64213;46.452;16.994;2023-04-03T08:48:57;100251.47;;;6.52;57.89
75629;BME280;64213;46.452;16.994;2023-04-03T08:52:04;100238.81;;;6.60;57.80
75629;BME280;64213;46.452;16.994;2023-04-03T08:55:31;100247.91;;;6.53;57.45
75629;BME280;64213;46.452;16.994;2023-04-03T08:58:59;100253.69;;;6.61;57.89
75629;BME280;64213;46.452;16.994;2023-04-03T09:02:12;100260.50;;;6.65;57.68
75629;BME280;64213;46.452;16.994;2023-04-03T09:05:32;100257.16;;;6.62;57.46
75629;BME280;64213;46.452;16.994;2023-04-03T09:15:23;100272.41;;;6.53;56.87
75629;BME280;64213;46.452;16.994;2023-04-03T09:18:43;100270.91;;;6.48;56.60
75629;BME280;64213;46.452;16.994;2023-04-03T09:21:47;100273.94;;;6.39;56.59
75629;BME280;64213;46.452;16.994;2023-04-03T09:25:05;100267.22;;;6.52;57.19
75629;BME280;64213;46.452;16.994;2023-04-03T09:28:12;100273.47;;;6.49;57.01
75629;BME280;64213;46.452;16.994;2023-04-03T09:31:19;100264.53;;;6.53;57.22
75629;BME280;64213;46.452;16.994;2023-04-03T09:34:24;100270.00;;;6.49;57.38
75629;BME280;64213;46.452;16.994;2023-04-03T09:37:49;100269.59;;;6.58;56.79
75629;BME280;64213;46.452;16.994;2023-04-03T09:41:06;100266.03;;;6.59;56.66
75629;BME280;64213;46.452;16.994;2023-04-03T09:44:22;100268.06;;;6.52;57.14
75629;BME280;64213;46.452;16.994;2023-04-03T09:47:33;100257.69;;;6.49;57.25
75629;BME280;64213;46.452;16.994;2023-04-03T09:50:36;100259.94;;;6.59;56.88
75629;BME280;64213;46.452;16.994;2023-04-03T09:53:41;100255.53;;;6.59;57.00
75629;BME280;64213;46.452;16.994;2023-04-03T09:56:50;100263.63;;;6.55;57.07
75629;BME280;64213;46.452;16.994;2023-04-03T10:00:00;100250.59;;;6.91;55.31
75629;BME280;64213;46.452;16.994;2023-04-03T10:03:03;100242.03;;;9.30;49.14
75629;BME280;64213;46.452;16.994;2023-04-03T10:06:22;100242.38;;;8.25;51.14
75629;BME280;64213;46.452;16.994;2023-04-03T10:12:29;100234.41;;;7.55;51.06
75629;BME280;64213;46.452;16.994;2023-04-03T10:15:38;100215.94;;;7.74;50.15
75629;BME280;64213;46.452;16.994;2023-04-03T10:18:46;100215.16;;;7.36;50.08
75629;BME280;64213;46.452;16.994;2023-04-03T10:25:46;100231.34;;;7.64;49.48
75629;BME280;64213;46.452;16.994;2023-04-03T10:29:00;100232.06;;;9.20;46.80
75629;BME280;64213;46.452;16.994;2023-04-03T10:35:44;100237.72;;;8.30;47.69
75629;BME280;64213;46.452;16.994;2023-04-03T10:42:17;100240.37;;;7.59;49.21
75629;BME280;64213;46.452;16.994;2023-04-03T10:51:47;100238.44;;;7.62;49.00
75629;BME280;64213;46.452;16.994;2023-04-03T10:58:33;100218.66;;;7.90;48.50
75629;BME280;64213;46.452;16.994;2023-04-03T11:01:38;100207.94;;;8.28;47.62
75629;BME280;64213;46.452;16.994;2023-04-03T11:04:44;100199.66;;;8.18;48.49
75629;BME280;64213;46.452;16.994;2023-04-03T11:07:52;100199.44;;;7.88;48.77
75629;BME280;64213;46.452;16.994;2023-04-03T11:10:57;100200.97;;;7.75;48.45
75629;BME280;64213;46.452;16.994;2023-04-03T11:14:17;100213.19;;;7.41;48.56
75629;BME280;64213;46.452;16.994;2023-04-03T11:17:33;100207.00;;;7.59;48.09
75629;BME280;64213;46.452;16.994;2023-04-03T11:20:42;100207.41;;;8.04;47.45
75629;BME280;64213;46.452;16.994;2023-04-03T11:23:46;100213.84;;;8.33;46.07
75629;BME280;64213;46.452;16.994;2023-04-03T11:26:52;100209.91;;;8.24;47.14
75629;BME280;64213;46.452;16.994;2023-04-03T11:29:55;100212.44;;;7.91;48.35
75629;BME280;64213;46.452;16.994;2023-04-03T11:34:08;100222.00;;;7.76;48.57
75629;BME280;64213;46.452;16.994;2023-04-03T11:36:43;100202.81;;;7.55;48.25
75629;BME280;64213;46.452;16.994;2023-04-03T11:39:52;100204.69;;;7.88;47.75
75629;BME280;64213;46.452;16.994;2023-04-03T11:46:03;100197.31;;;8.80;44.19
75629;BME280;64213;46.452;16.994;2023-04-03T11:55:56;100196.66;;;7.56;45.37
75629;BME280;64213;46.452;16.994;2023-04-03T12:02:36;100188.97;;;7.52;45.58
75629;BME280;64213;46.452;16.994;2023-04-03T12:08:59;100176.34;;;7.58;45.01
75629;BME280;64213;46.452;16.994;2023-04-03T12:12:27;100176.94;;;7.29;45.33
75629;BME280;64213;46.452;16.994;2023-04-03T12:19:30;100176.00;;;7.30;45.39
75629;BME280;64213;46.452;16.994;2023-04-03T12:22:09;100168.69;;;8.06;43.90
75629;BME280;64213;46.452;16.994;2023-04-03T12:25:48;100180.72;;;7.77;44.67
75629;BME280;64213;46.452;16.994;2023-04-03T12:28:53;100180.44;;;8.16;44.06
75629;BME280;64213;46.452;16.994;2023-04-03T12:35:28;100173.78;;;9.54;39.93
75629;BME280;64213;46.452;16.994;2023-04-03T12:38:49;100171.06;;;8.61;41.93
75629;BME280;64213;46.452;16.994;2023-04-03T12:45:25;100155.87;;;8.82;41.77
75629;BME280;64213;46.452;16.994;2023-04-03T12:48:31;100182.41;;;7.95;42.49
75629;BME280;64213;46.452;16.994;2023-04-03T12:51:42;100170.00;;;7.97;42.78
75629;BME280;64213;46.452;16.994;2023-04-03T12:54:46;100174.84;;;9.20;40.31
75629;BME280;64213;46.452;16.994;2023-04-03T12:57:49;100167.28;;;9.90;38.98
75629;BME280;64213;46.452;16.994;2023-04-03T13:01:17;100151.63;;;10.32;38.38
75629;BME280;64213;46.452;16.994;2023-04-03T13:04:20;100151.03;;;10.27;37.77
75629;BME280;64213;46.452;16.994;2023-04-03T13:07:32;100142.37;;;9.80;36.80
75629;BME280;64213;46.452;16.994;2023-04-03T13:14:04;100148.06;;;10.17;36.11
75629;BME280;64213;46.452;16.994;2023-04-03T13:17:13;100124.19;;;10.04;36.32
75629;BME280;64213;46.452;16.994;2023-04-03T13:20:28;100136.03;;;10.27;36.85
75629;BME280;64213;46.452;16.994;2023-04-03T13:23:32;100124.31;;;10.45;36.00
75629;BME280;64213;46.452;16.994;2023-04-03T13:26:37;100113.53;;;10.63;35.34
75629;BME280;64213;46.452;16.994;2023-04-03T13:29:40;100110.94;;;11.17;34.59
75629;BME280;64213;46.452;16.994;2023-04-03T13:32:43;100121.63;;;10.88;34.69
75629;BME280;64213;46.452;16.994;2023-04-03T13:35:46;100107.88;;;10.96;34.41
75629;BME280;64213;46.452;16.994;2023-04-03T13:39:23;100099.41;;;11.71;34.12
75629;BME280;64213;46.452;16.994;2023-04-03T13:42:28;100101.31;;;11.29;35.12
75629;BME280;64213;46.452;16.994;2023-04-03T13:45:33;100112.63;;;10.35;36.00
75629;BME280;64213;46.452;16.994;2023-04-03T13:48:44;100123.25;;;10.05;34.71
75629;BME280;64213;46.452;16.994;2023-04-03T13:51:47;100109.47;;;10.57;33.50
75629;BME280;64213;46.452;16.994;2023-04-03T13:55:15;100095.41;;;10.42;33.33
75629;BME280;64213;46.452;16.994;2023-04-03T13:58:28;100098.97;;;10.70;33.55
75629;BME280;64213;46.452;16.994;2023-04-03T14:01:41;100091.09;;;10.83;33.90
75629;BME280;64213;46.452;16.994;2023-04-03T14:07:46;100089.59;;;10.37;34.34
75629;BME280;64213;46.452;16.994;2023-04-03T14:10:49;100118.22;;;10.00;34.60
75629;BME280;64213;46.452;16.994;2023-04-03T14:13:51;100094.87;;;9.78;34.43
75629;BME280;64213;46.452;16.994;2023-04-03T14:16:56;100075.19;;;10.13;34.64
75629;BME280;64213;46.452;16.994;2023-04-03T14:20:02;100082.75;;;9.90;34.88
75629;BME280;64213;46.452;16.994;2023-04-03T14:23:05;100082.44;;;9.95;34.88
75629;BME280;64213;46.452;16.994;2023-04-03T14:26:20;100089.75;;;10.06;34.63
75629;BME280;64213;46.452;16.994;2023-04-03T14:29:23;100096.53;;;10.10;34.05
75629;BME280;64213;46.452;16.994;2023-04-03T14:32:26;100099.66;;;10.16;34.36
75629;BME280;64213;46.452;16.994;2023-04-03T14:35:29;100097.59;;;10.21;34.50
75629;BME280;64213;46.452;16.994;2023-04-03T14:38:31;100091.22;;;9.95;34.21
75629;BME280;64213;46.452;16.994;2023-04-03T14:41:33;100109.88;;;9.64;34.61
75629;BME280;64213;46.452;16.994;2023-04-03T14:44:36;100118.53;;;9.66;34.82
75629;BME280;64213;46.452;16.994;2023-04-03T14:47:56;100112.47;;;9.80;35.63
75629;BME280;64213;46.452;16.994;2023-04-03T14:50:59;100129.91;;;9.06;36.37
75629;BME280;64213;46.452;16.994;2023-04-03T14:54:13;100124.78;;;9.03;36.24
75629;BME280;64213;46.452;16.994;2023-04-03T14:57:17;100128.31;;;8.88;36.55
75629;BME280;64213;46.452;16.994;2023-04-03T15:00:22;100115.81;;;8.75;36.95
75629;BME280;64213;46.452;16.994;2023-04-03T15:03:26;100120.56;;;8.69;36.63
75629;BME280;64213;46.452;16.994;2023-04-03T15:06:32;100120.81;;;8.64;36.94
75629;BME280;64213;46.452;16.994;2023-04-03T15:09:37;100120.62;;;8.18;37.27
75629;BME280;64213;46.452;16.994;2023-04-03T15:12:43;100121.47;;;8.99;36.33
75629;BME280;64213;46.452;16.994;2023-04-03T15:15:49;100132.97;;;9.14;36.73
75629;BME280;64213;46.452;16.994;2023-04-03T15:18:55;100136.56;;;8.97;36.24
75629;BME280;64213;46.452;16.994;2023-04-03T15:21:59;100132.31;;;9.11;36.15
75629;BME280;64213;46.452;16.994;2023-04-03T15:25:04;100123.94;;;8.22;37.04
75629;BME280;64213;46.452;16.994;2023-04-03T15:28:19;100133.69;;;8.20;37.04
75629;BME280;64213;46.452;16.994;2023-04-03T15:31:26;100125.41;;;8.27;37.09
75629;BME280;64213;46.452;16.994;2023-04-03T15:34:31;100108.13;;;8.22;37.55
75629;BME280;64213;46.452;16.994;2023-04-03T15:37:34;100136.09;;;7.74;38.23
75629;BME280;64213;46.452;16.994;2023-04-03T15:40:38;100141.97;;;7.08;38.42
75629;BME280;64213;46.452;16.994;2023-04-03T15:43:40;100137.34;;;6.77;39.15
75629;BME280;64213;46.452;16.994;2023-04-03T15:46:42;100159.56;;;6.69;39.74
75629;BME280;64213;46.452;16.994;2023-04-03T15:49:44;100143.56;;;6.93;39.27
75629;BME280;64213;46.452;16.994;2023-04-03T15:52:47;100150.41;;;7.14;38.46
75629;BME280;64213;46.452;16.994;2023-04-03T15:55:49;100155.31;;;6.67;39.19
75629;BME280;64213;46.452;16.994;2023-04-03T15:58:52;100170.94;;;6.31;40.34
75629;BME280;64213;46.452;16.994;2023-04-03T16:01:54;100157.12;;;6.07;41.40
75629;BME280;64213;46.452;16.994;2023-04-03T16:04:56;100180.72;;;5.86;42.31
75629;BME280;64213;46.452;16.994;2023-04-03T16:08:00;100174.00;;;6.01;42.32
75629;BME280;64213;46.452;16.994;2023-04-03T16:11:02;100167.53;;;5.88;42.19
75629;BME280;64213;46.452;16.994;2023-04-03T16:14:08;100167.53;;;5.88;42.31
75629;BME280;64213;46.452;16.994;2023-04-03T16:17:10;100172.81;;;5.88;42.24
75629;BME280;64213;46.452;16.994;2023-04-03T16:20:16;100177.00;;;5.92;41.80
75629;BME280;64213;46.452;16.994;2023-04-03T16:23:21;100171.03;;;5.88;41.49
75629;BME280;64213;46.452;16.994;2023-04-03T16:26:23;100185.16;;;5.64;41.93
75629;BME280;64213;46.452;16.994;2023-04-03T16:29:25;100187.53;;;5.49;42.17
75629;BME280;64213;46.452;16.994;2023-04-03T16:32:29;100204.97;;;5.28;42.80
75629;BME280;64213;46.452;16.994;2023-04-03T16:35:32;100199.72;;;5.28;42.90
75629;BME280;64213;46.452;16.994;2023-04-03T16:38:35;100192.87;;;5.24;42.95
75629;BME280;64213;46.452;16.994;2023-04-03T16:41:37;100201.69;;;5.23;43.10
75629;BME280;64213;46.452;16.994;2023-04-03T16:44:39;100207.44;;;5.09;43.44
75629;BME280;64213;46.452;16.994;2023-04-03T16:47:42;100209.84;;;5.16;43.61
75629;BME280;64213;46.452;16.994;2023-04-03T16:50:47;100206.59;;;5.09;43.64
75629;BME280;64213;46.452;16.994;2023-04-03T16:53:51;100212.88;;;5.05;43.91
75629;BME280;64213;46.452;16.994;2023-04-03T16:56:53;100211.22;;;5.02;43.88
75629;BME280;64213;46.452;16.994;2023-04-03T16:59:55;100212.25;;;4.98;44.09
75629;BME280;64213;46.452;16.994;2023-04-03T17:02:57;100212.50;;;4.92;44.27
75629;BME280;64213;46.452;16.994;2023-04-03T17:06:00;100218.59;;;4.93;44.12
75629;BME280;64213;46.452;16.994;2023-04-03T17:09:02;100225.75;;;4.87;44.18
75629;BME280;64213;46.452;16.994;2023-04-03T17:12:05;100218.47;;;4.72;44.59
75629;BME280;64213;46.452;16.994;2023-04-03T17:15:08;100238.66;;;4.70;45.21
75629;BME280;64213;46.452;16.994;2023-04-03T17:18:11;100246.63;;;4.67;45.46
75629;BME280;64213;46.452;16.994;2023-04-03T17:21:13;100242.41;;;4.63;44.93